createdAt,value
2019-03-11T00:00:57.943Z,99030.55
2019-03-11T00:04:06.420Z,99029.53
2019-03-11T00:06:54.787Z,99022.17
2019-03-11T00:09:59.540Z,99026.22
2019-03-11T00:12:47.739Z,99022.76
2019-03-11T00:15:52.281Z,99045.58
2019-03-11T00:18:40.287Z,99039.78
2019-03-11T00:21:45.059Z,99028.26
2019-03-11T00:24:32.851Z,99039.18
2019-03-11T00:27:37.564Z,99038.45
2019-03-11T00:30:42.352Z,99042.68
2019-03-11T00:33:30.279Z,99043.81
2019-03-11T00:36:36.786Z,99043.75
2019-03-11T00:39:24.621Z,99038.41
2019-03-11T00:42:29.056Z,99032.84
2019-03-11T00:45:16.883Z,99025.95
2019-03-11T00:48:21.765Z,99033.23
2019-03-11T00:51:10.095Z,99047.86
2019-03-11T00:54:14.806Z,99038.44
2019-03-11T00:57:02.500Z,99022.26
2019-03-11T01:00:08.579Z,99009.79
2019-03-11T01:02:56.646Z,99021.41
2019-03-11T01:06:01.206Z,99022.98
2019-03-11T01:08:49.367Z,99019.69
2019-03-11T01:11:55.087Z,99012.83
2019-03-11T01:14:42.980Z,99008.86
2019-03-11T01:17:47.459Z,99006.50
2019-03-11T01:20:35.806Z,98994.30
2019-03-11T01:23:40.409Z,98992.20
2019-03-11T01:26:28.413Z,99000.98
2019-03-11T01:29:32.842Z,99014.98
2019-03-11T01:32:20.678Z,99011.61
2019-03-11T01:35:25.632Z,99013.24
2019-03-11T01:38:13.753Z,99014.44
2019-03-11T01:41:18.599Z,99017.46
2019-03-11T01:44:06.542Z,99018.86
2019-03-11T01:47:11.352Z,99015.18
2019-03-11T01:49:59.294Z,99003.18
2019-03-11T01:53:07.054Z,99004.09
2019-03-11T01:55:55.904Z,98996.52
2019-03-11T01:59:01.942Z,98997.61
2019-03-11T02:01:49.951Z,99004.78
2019-03-11T02:04:56.860Z,99013.77
2019-03-11T02:07:45.000Z,99011.25
2019-03-11T02:10:50.112Z,99034.42
2019-03-11T02:13:37.956Z,99039.60
2019-03-11T02:16:42.787Z,99047.34
2019-03-11T02:19:30.903Z,99043.52
2019-03-11T02:22:36.008Z,99036.16
2019-03-11T02:25:24.132Z,99038.62
2019-03-11T02:28:28.756Z,99045.70
2019-03-11T02:31:17.017Z,99049.80
2019-03-11T02:34:21.682Z,99049.82
2019-03-11T02:37:09.807Z,99061.69
2019-03-11T02:40:14.419Z,99059.09
2019-03-11T02:43:02.360Z,99060.86
2019-03-11T02:46:07.257Z,99051.19
2019-03-11T02:48:55.134Z,99060.38
2019-03-11T02:52:00.024Z,99067.55
2019-03-11T02:54:48.329Z,99070.42
2019-03-11T02:57:54.498Z,99072.31
2019-03-11T03:00:42.402Z,99072.84
2019-03-11T03:06:59.730Z,99062.78
2019-03-11T03:10:04.411Z,99065.38
2019-03-11T03:12:52.204Z,99064.15
2019-03-11T03:15:56.606Z,99067.44
2019-03-11T03:18:44.850Z,99063.98
2019-03-11T03:21:49.782Z,99057.83
2019-03-11T03:24:37.606Z,99062.53
2019-03-11T03:27:42.614Z,99064.79
2019-03-11T03:30:30.489Z,99068.45
2019-03-11T03:33:35.455Z,99056.94
2019-03-11T03:36:23.735Z,99053.45
2019-03-11T03:39:28.141Z,99057.14
2019-03-11T03:42:16.202Z,99062.31
2019-03-11T03:45:20.697Z,99063.14
2019-03-11T03:48:08.794Z,99075.52
2019-03-11T03:51:13.398Z,99078.36
2019-03-11T03:54:01.119Z,99081.24
2019-03-11T03:57:05.929Z,99087.59
2019-03-11T03:59:53.741Z,99083.91
2019-03-11T04:02:58.724Z,99078.68
2019-03-11T04:05:46.468Z,99090.12
2019-03-11T04:08:51.026Z,99080.16
2019-03-11T04:11:39.156Z,99079.58
2019-03-11T04:14:43.810Z,99086.00
2019-03-11T04:17:31.693Z,99090.03
2019-03-11T04:20:36.490Z,99088.05
2019-03-11T04:23:24.381Z,99093.97
2019-03-11T04:26:29.416Z,99095.27
2019-03-11T04:29:17.428Z,99091.89
2019-03-11T04:32:22.362Z,99091.50
2019-03-11T04:35:10.162Z,99098.89
2019-03-11T04:38:15.163Z,99107.77
2019-03-11T04:41:03.294Z,99102.54
2019-03-11T04:44:07.928Z,99111.38
2019-03-11T04:46:55.878Z,99102.08
2019-03-11T04:50:00.718Z,99107.92
2019-03-11T04:52:48.736Z,99103.66
2019-03-11T04:55:53.670Z,99107.72
2019-03-11T04:58:41.916Z,99105.97
2019-03-11T05:01:46.636Z,99114.27
2019-03-11T05:04:35.901Z,99122.51
2019-03-11T05:07:40.574Z,99124.28
2019-03-11T05:10:28.831Z,99126.12
2019-03-11T05:13:33.580Z,99132.87
2019-03-11T05:16:21.363Z,99140.14
2019-03-11T05:19:26.249Z,99143.61
2019-03-11T05:22:14.414Z,99146.56
2019-03-11T05:25:19.252Z,99144.70
2019-03-11T05:28:07.499Z,99156.54
2019-03-11T05:53:34.535Z,99164.66
2019-03-11T05:56:39.693Z,99163.34
2019-03-11T05:59:28.119Z,99167.53
2019-03-11T06:02:32.514Z,99175.84
2019-03-11T06:05:20.515Z,99176.11
2019-03-11T06:08:24.976Z,99177.76
2019-03-11T06:11:13.654Z,99170.28
2019-03-11T06:14:18.245Z,99171.11
2019-03-11T06:17:06.063Z,99169.98
2019-03-11T06:20:21.769Z,99177.37
2019-03-11T06:23:11.867Z,99182.61
2019-03-11T06:26:16.594Z,99184.41
2019-03-11T06:29:06.757Z,99191.25
2019-03-11T06:32:14.515Z,99191.47
2019-03-11T06:35:02.856Z,99194.03
2019-03-11T08:18:03.348Z,99067.84
2019-03-11T08:20:32.543Z,99073.55
2019-03-11T08:23:01.629Z,99062.03
2019-03-11T08:25:33.577Z,99066.70
2019-03-11T08:28:05.195Z,99070.35
2019-03-11T08:30:34.014Z,99054.36
2019-03-11T08:33:06.112Z,99046.78
2019-03-11T08:35:34.967Z,99039.07
2019-03-11T08:38:05.188Z,99038.42
2019-03-11T08:40:37.366Z,99038.39
2019-03-11T08:43:06.336Z,99031.69
2019-03-11T08:45:35.082Z,99026.31
2019-03-11T08:48:06.932Z,99024.19
2019-03-11T08:50:35.642Z,99017.42
2019-03-11T08:53:05.977Z,99009.73
2019-03-11T08:55:34.873Z,99001.34
2019-03-11T08:58:03.634Z,98991.48
2019-03-11T09:00:32.415Z,98990.36
2019-03-11T09:03:03.074Z,98989.39
2019-03-11T09:05:32.066Z,98985.00
2019-03-11T09:08:03.401Z,98974.59
2019-03-11T09:10:33.959Z,98966.12
2019-03-11T09:13:02.747Z,98965.73
2019-03-11T09:15:32.680Z,98966.12
2019-03-11T09:18:02.348Z,98962.28
2019-03-11T09:20:31.136Z,98963.45
2019-03-11T09:23:01.667Z,98951.81
2019-03-11T09:25:33.657Z,98945.52
2019-03-11T09:28:02.447Z,98943.73
2019-03-11T09:30:31.221Z,98936.45
2019-03-11T09:33:00.021Z,98933.05
2019-03-11T09:35:28.790Z,98929.95
2019-03-11T09:37:59.262Z,98929.71
2019-03-11T09:40:28.072Z,98924.42
2019-03-11T09:42:58.195Z,98925.11
2019-03-11T09:45:27.175Z,98916.50
2019-03-11T09:47:55.977Z,98915.69
2019-03-11T09:50:24.879Z,98906.62
2019-03-11T09:52:54.034Z,98903.39
2019-03-11T09:55:25.027Z,98901.27
2019-03-11T09:57:53.939Z,98902.58
2019-03-11T10:00:24.888Z,98900.88
2019-03-11T10:02:53.782Z,98899.33
2019-03-11T10:05:22.467Z,98907.66
2019-03-11T10:07:51.819Z,98885.71
2019-03-11T10:10:22.433Z,98876.36
2019-03-11T10:12:51.208Z,98868.00
2019-03-11T10:15:23.785Z,98866.20
2019-03-11T10:17:53.108Z,98868.53
2019-03-11T10:20:22.410Z,98874.22
2019-03-11T10:22:51.630Z,98866.59
2019-03-11T10:25:21.442Z,98866.45
2019-03-11T10:27:50.607Z,98862.20
2019-03-11T10:30:20.634Z,98864.13
2019-03-11T10:33:05.973Z,98858.80
2019-03-11T10:35:34.166Z,98851.91
2019-03-11T10:38:02.932Z,98859.11
2019-03-11T10:40:34.688Z,98855.55
2019-03-11T10:43:03.475Z,98849.06
2019-03-11T10:45:32.504Z,98829.14
2019-03-11T10:48:01.427Z,98825.88
2019-03-11T10:50:30.469Z,98822.63
2019-03-11T10:52:59.155Z,98812.72
2019-03-11T10:55:28.512Z,98793.09
2019-03-11T10:57:57.254Z,98799.09
2019-03-11T11:00:29.133Z,98787.94
2019-03-11T11:03:01.248Z,98780.39
2019-03-11T11:05:30.080Z,98785.28
2019-03-11T11:07:59.101Z,98768.77
2019-03-11T11:10:30.888Z,98763.14
2019-03-11T11:12:59.656Z,98754.39
2019-03-11T11:15:30.809Z,98742.78
2019-03-11T11:17:59.614Z,98741.02
2019-03-11T11:20:28.800Z,98729.49
2019-03-11T11:22:57.650Z,98725.80
2019-03-11T11:25:28.144Z,98714.63
2019-03-11T11:27:57.275Z,98713.77
2019-03-11T11:30:49.594Z,98704.59
2019-03-11T11:33:37.698Z,98697.55
2019-03-11T11:36:42.104Z,98692.21
2019-03-11T11:39:30.171Z,98681.13
2019-03-11T11:42:34.767Z,98679.88
2019-03-11T11:45:22.844Z,98683.11
2019-03-11T11:48:27.922Z,98683.14
2019-03-11T11:51:16.257Z,98683.82
2019-03-11T11:54:20.832Z,98685.22
2019-03-11T11:57:09.046Z,98677.39
2019-03-11T12:00:14.051Z,98676.17
2019-03-11T12:03:02.109Z,98673.80
2019-03-11T12:06:07.288Z,98670.13
2019-03-11T12:08:55.471Z,98665.52
2019-03-11T12:12:00.337Z,98669.00
2019-03-11T12:14:48.690Z,98656.72
2019-03-11T12:17:53.741Z,98649.91
2019-03-11T12:20:58.765Z,98650.52
2019-03-11T12:23:47.309Z,98648.70
2019-03-11T12:26:51.909Z,98642.67
2019-03-11T12:29:39.993Z,98636.75
2019-03-11T12:32:45.115Z,98634.41
2019-03-11T12:35:33.283Z,98632.58
2019-03-11T12:38:38.251Z,98630.22
2019-03-11T12:41:26.466Z,98623.39
2019-03-11T12:44:31.073Z,98628.03
2019-03-11T12:47:19.016Z,98615.47
2019-03-11T12:50:24.074Z,98620.87
2019-03-11T12:53:12.252Z,98619.80
2019-03-11T12:56:16.772Z,98619.50
2019-03-11T12:59:04.636Z,98619.88
2019-03-11T13:02:09.638Z,98619.75
2019-03-11T13:04:57.757Z,98614.78
2019-03-11T13:08:02.419Z,98612.44
2019-03-11T13:10:50.136Z,98611.90
2019-03-11T13:13:54.656Z,98611.58
2019-03-11T13:16:42.616Z,98606.03
2019-03-11T13:19:47.362Z,98594.98
2019-03-11T13:22:35.528Z,98589.63
2019-03-11T13:25:40.235Z,98583.57
2019-03-11T13:28:29.056Z,98580.05
2019-03-11T13:31:34.005Z,98586.72
2019-03-11T13:34:21.951Z,98585.11
2019-03-11T13:37:26.746Z,98587.41
2019-03-11T13:40:16.272Z,98588.16
2019-03-11T13:43:22.881Z,98580.83
2019-03-11T13:46:10.767Z,98578.27
2019-03-11T13:49:18.810Z,98571.29
2019-03-11T13:52:09.670Z,98570.99
2019-03-11T13:55:14.574Z,98565.61
2019-03-11T13:58:03.231Z,98557.80
2019-03-11T14:01:08.399Z,98553.11
2019-03-11T14:03:56.500Z,98552.05
2019-03-11T14:07:00.988Z,98548.25
2019-03-11T14:09:48.895Z,98549.11
2019-03-11T14:12:53.969Z,98541.11
2019-03-11T14:15:41.759Z,98545.54
2019-03-11T14:18:46.674Z,98542.96
2019-03-11T14:21:34.472Z,98543.86
2019-03-11T14:24:39.103Z,98542.52
2019-03-11T14:27:27.381Z,98542.10
2019-03-11T14:30:32.128Z,98530.00
2019-03-11T14:33:20.098Z,98524.86
2019-03-11T14:36:24.649Z,98526.34
2019-03-11T14:39:12.867Z,98514.55
2019-03-11T14:42:17.497Z,98511.13
2019-03-11T14:45:05.567Z,98508.49
2019-03-11T14:48:10.062Z,98507.25
2019-03-11T14:50:38.844Z,98512.41
2019-03-11T14:53:07.526Z,98514.17
2019-03-11T14:55:36.234Z,98507.45
2019-03-11T14:58:04.903Z,98511.34
2019-03-11T15:00:33.574Z,98508.02
2019-03-11T15:03:02.200Z,98506.42
2019-03-11T15:05:31.383Z,98499.05
2019-03-11T15:08:00.006Z,98502.02
2019-03-11T15:10:28.651Z,98490.30
2019-03-11T15:12:57.332Z,98485.00
2019-03-11T15:15:26.506Z,98488.56
2019-03-11T15:17:55.131Z,98480.83
2019-03-11T15:20:23.794Z,98476.02
2019-03-11T15:22:52.417Z,98479.95
2019-03-11T15:25:21.164Z,98473.47
2019-03-11T15:27:52.704Z,98477.27
2019-03-11T15:30:22.880Z,98464.73
2019-03-11T15:32:51.600Z,98471.51
2019-03-11T15:35:20.619Z,98468.51
2019-03-11T15:37:49.387Z,98465.38
2019-03-11T15:40:18.777Z,98457.25
2019-03-11T15:42:50.228Z,98459.19
2019-03-11T15:45:19.767Z,98458.95
2019-03-11T15:47:51.457Z,98456.34
2019-03-11T15:50:33.840Z,98460.33
2019-03-11T15:53:02.609Z,98459.06
2019-03-11T15:55:31.349Z,98450.92
2019-03-11T15:57:59.986Z,98457.20
2019-03-11T16:00:28.726Z,98454.95
2019-03-11T16:02:57.462Z,98450.04
2019-03-11T16:05:26.752Z,98444.40
2019-03-11T16:07:58.655Z,98446.45
2019-03-11T16:10:27.401Z,98438.61
2019-03-11T16:12:56.055Z,98440.20
2019-03-11T16:15:24.719Z,98438.89
2019-03-11T16:17:53.306Z,98442.94
2019-03-11T16:20:24.108Z,98451.02
2019-03-11T16:22:52.797Z,98444.28
2019-03-11T16:25:21.548Z,98440.44
2019-03-11T16:27:55.968Z,98437.78
2019-03-11T16:30:25.741Z,98429.35
2019-03-11T16:33:00.451Z,98428.88
2019-03-11T16:35:27.039Z,98426.81
2019-03-11T16:37:55.793Z,98421.87
2019-03-11T16:40:24.474Z,98429.77
2019-03-11T16:42:53.112Z,98436.86
2019-03-11T16:45:22.061Z,98428.55
2019-03-11T16:47:50.690Z,98438.51
2019-03-11T16:50:26.775Z,98434.78
2019-03-11T16:52:55.388Z,98432.03
2019-03-11T16:55:28.742Z,98431.66
2019-03-11T16:57:57.382Z,98430.44
2019-03-11T17:00:39.738Z,98432.34
2019-03-11T17:03:08.853Z,98431.60
2019-03-11T17:05:37.529Z,98422.03
2019-03-11T17:08:06.171Z,98418.08
2019-03-11T17:10:34.843Z,98410.23
2019-03-11T17:13:03.477Z,98411.88
2019-03-11T17:15:32.148Z,98414.58
2019-03-11T17:18:00.785Z,98420.08
2019-03-11T17:20:29.519Z,98428.31
2019-03-11T17:22:58.141Z,98422.28
2019-03-11T17:25:26.779Z,98430.59
2019-03-11T17:27:55.447Z,98422.28
2019-03-11T17:30:27.536Z,98428.09
2019-03-11T17:32:56.170Z,98424.13
2019-03-11T17:35:24.879Z,98426.88
2019-03-11T17:37:53.546Z,98426.88
2019-03-11T17:40:23.570Z,98423.70
2019-03-11T17:42:52.506Z,98428.84
2019-03-11T17:45:21.264Z,98430.66
2019-03-11T17:47:49.899Z,98432.58
2019-03-11T17:50:25.798Z,98431.13
2019-03-11T17:52:54.438Z,98429.60
2019-03-11T17:55:23.073Z,98430.42
2019-03-11T17:57:51.813Z,98424.34
2019-03-11T18:00:38.147Z,98424.34
2019-03-11T18:03:06.991Z,98423.01
2019-03-11T18:05:35.685Z,98423.03
2019-03-11T18:08:04.639Z,98420.03
2019-03-11T18:10:33.327Z,98420.03
2019-03-11T18:13:02.175Z,98421.28
2019-03-11T18:15:30.889Z,98412.75
2019-03-11T18:17:59.621Z,98412.27
2019-03-11T18:20:28.573Z,98412.27
2019-03-11T18:22:57.513Z,98416.31
2019-03-11T18:25:26.512Z,98418.08
2019-03-11T18:27:55.566Z,98418.44
2019-03-11T18:30:30.458Z,98411.85
2019-03-11T18:32:59.219Z,98414.34
2019-03-11T18:35:27.825Z,98417.38
2019-03-11T18:38:04.197Z,98417.05
2019-03-11T18:40:29.876Z,98417.60
2019-03-11T18:43:01.274Z,98426.64
2019-03-11T18:45:29.947Z,98418.86
2019-03-11T18:47:58.589Z,98417.75
2019-03-11T18:50:27.299Z,98416.34
2019-03-11T18:52:55.843Z,98415.89
2019-03-11T18:55:27.552Z,98417.04
2019-03-11T18:57:56.237Z,98418.52
2019-03-11T19:00:25.298Z,98407.79
2019-03-11T19:02:53.981Z,98402.95
2019-03-11T19:05:23.740Z,98395.47
2019-03-11T19:07:54.891Z,98393.79
2019-03-11T19:10:22.730Z,98389.42
2019-03-11T19:12:51.367Z,98385.52
2019-03-11T19:15:24.498Z,98378.94
2019-03-11T19:17:55.793Z,98384.99
2019-03-11T19:20:27.725Z,98370.67
2019-03-11T19:22:56.346Z,98369.70
2019-03-11T19:25:24.818Z,98356.22
2019-03-11T19:27:53.423Z,98357.55
2019-03-11T19:30:26.588Z,98360.31
2019-03-11T19:32:55.298Z,98360.31
2019-03-11T19:35:24.027Z,98363.50
2019-03-11T19:37:52.813Z,98364.41
2019-03-11T19:40:23.584Z,98366.95
2019-03-11T19:42:52.295Z,98362.44
2019-03-11T19:45:20.989Z,98365.60
2019-03-11T19:47:49.672Z,98376.09
2019-03-11T19:50:19.147Z,98386.02
2019-03-11T19:52:57.959Z,98394.20
2019-03-11T19:55:18.291Z,98400.91
2019-03-11T19:57:47.163Z,98410.97
2019-03-11T20:00:23.926Z,98420.19
2019-03-11T20:02:52.757Z,98421.74
2019-03-11T20:05:24.438Z,98420.00
2019-03-11T20:07:53.184Z,98421.61
2019-03-11T20:10:21.857Z,98424.90
2019-03-11T20:12:50.513Z,98440.39
2019-03-11T20:15:19.152Z,98433.03
2019-03-11T20:17:48.108Z,98433.53
2019-03-11T20:20:18.698Z,98438.63
2019-03-11T20:22:48.495Z,98454.83
2019-03-11T20:25:22.883Z,98467.44
2019-03-11T20:27:51.438Z,98473.12
2019-03-11T20:30:21.866Z,98471.70
2019-03-11T20:32:50.502Z,98475.03
2019-03-11T20:35:21.921Z,98482.16
2019-03-11T20:37:50.536Z,98478.93
2019-03-11T20:40:19.121Z,98477.78
2019-03-11T20:42:47.982Z,98473.28
2019-03-11T20:45:18.823Z,98478.59
2019-03-11T20:47:47.522Z,98478.89
2019-03-11T20:50:17.045Z,98477.21
2019-03-11T20:52:45.775Z,98478.12
2019-03-11T20:55:15.544Z,98476.06
2019-03-11T20:57:44.153Z,98480.16
2019-03-11T21:00:15.522Z,98477.87
2019-03-11T21:02:44.273Z,98478.66
2019-03-11T21:05:15.584Z,98481.30
2019-03-11T21:07:44.158Z,98473.02
2019-03-11T21:10:14.702Z,98476.43
2019-03-11T21:12:43.516Z,98476.44
2019-03-11T21:15:14.748Z,98481.93
2019-03-11T21:17:43.467Z,98476.48
2019-03-11T21:20:14.798Z,98478.47
2019-03-11T21:22:43.475Z,98474.23
2019-03-11T21:25:17.762Z,98461.46
2019-03-11T21:27:46.516Z,98451.25
2019-03-11T21:30:20.581Z,98452.86
2019-03-11T21:32:49.292Z,98456.57
2019-03-11T21:35:18.081Z,98462.17
2019-03-11T21:37:46.698Z,98457.00
2019-03-11T21:40:17.158Z,98461.70
2019-03-11T21:42:45.964Z,98460.19
2019-03-11T21:45:15.727Z,98455.39
2019-03-11T21:47:44.353Z,98449.47
2019-03-11T21:50:28.694Z,98452.02
2019-03-11T21:52:57.413Z,98455.09
2019-03-11T21:55:26.062Z,98461.71
2019-03-11T21:57:54.692Z,98469.86
2019-03-11T22:00:34.002Z,98467.69
2019-03-11T22:02:54.528Z,98459.86
2019-03-11T22:05:23.086Z,98465.79
2019-03-11T22:07:51.759Z,98477.46
2019-03-11T22:10:20.892Z,98488.47
2019-03-11T22:12:49.802Z,98479.53
2019-03-11T22:15:20.523Z,98488.83
2019-03-11T22:17:49.082Z,98489.34
2019-03-11T22:20:18.381Z,98493.73
2019-03-11T22:22:47.016Z,98494.80
2019-03-11T22:25:16.686Z,98484.17
2019-03-11T22:27:45.367Z,98488.33
2019-03-11T22:30:19.294Z,98486.75
2019-03-11T22:32:47.932Z,98488.89
2019-03-11T22:35:16.566Z,98479.60
2019-03-11T22:37:45.166Z,98479.28
2019-03-11T22:40:17.571Z,98480.21
2019-03-11T22:42:46.206Z,98492.48
2019-03-11T22:45:26.162Z,98484.97
2019-03-11T22:47:54.767Z,98481.98
2019-03-11T22:50:23.394Z,98479.56
2019-03-11T22:52:52.066Z,98484.61
2019-03-11T22:55:20.791Z,98499.66
2019-03-11T22:57:49.414Z,98504.09
2019-03-11T23:00:25.593Z,98509.22
2019-03-11T23:02:54.191Z,98508.61
2019-03-11T23:05:22.821Z,98513.95
2019-03-11T23:07:51.491Z,98511.52
2019-03-11T23:10:20.116Z,98507.64
2019-03-11T23:12:48.718Z,98505.88
2019-03-11T23:15:17.401Z,98508.91
2019-03-11T23:17:45.893Z,98508.68
2019-03-11T23:20:14.618Z,98506.39
2019-03-11T23:22:43.226Z,98523.84
2019-03-11T23:25:11.847Z,98521.14
2019-03-11T23:27:40.521Z,98525.61
2019-03-11T23:30:12.221Z,98525.91
2019-03-11T23:32:40.805Z,98518.15
2019-03-11T23:35:09.444Z,98532.20
2019-03-11T23:37:38.070Z,98541.25
2019-03-11T23:40:08.847Z,98550.48
2019-03-11T23:42:37.522Z,98549.22
2019-03-11T23:45:08.006Z,98547.59
2019-03-11T23:47:36.577Z,98536.38
2019-03-11T23:50:07.309Z,98550.30
2019-03-11T23:52:35.868Z,98550.34
2019-03-11T23:55:06.702Z,98541.56
2019-03-11T23:57:35.301Z,98545.42
